sensor_id;sensor_type;location;lat;lon;timestamp;temperature;humidity
79356;SHT31;68825;51.978;5.654;2024-02-16T00:00:13;14.1;70.1
79356;SHT31;68825;51.978;5.654;2024-02-16T00:02:43;14.1;69.8
79356;SHT31;68825;51.978;5.654;2024-02-16T00:05:12;14.1;70.1
79356;SHT31;68825;51.978;5.654;2024-02-16T00:07:41;14.1;70.2
79356;SHT31;68825;51.978;5.654;2024-02-16T00:10:12;14.0;69.9
79356;SHT31;68825;51.978;5.654;2024-02-16T00:12:41;14.0;70.1
79356;SHT31;68825;51.978;5.654;2024-02-16T00:15:10;14.0;70.1
79356;SHT31;68825;51.978;5.654;2024-02-16T00:17:39;14.0;69.9
79356;SHT31;68825;51.978;5.654;2024-02-16T00:20:12;14.0;69.8
79356;SHT31;68825;51.978;5.654;2024-02-16T00:22:42;14.0;69.9
79356;SHT31;68825;51.978;5.654;2024-02-16T00:25:12;14.0;69.8
79356;SHT31;68825;51.978;5.654;2024-02-16T00:27:42;14.0;69.9
79356;SHT31;68825;51.978;5.654;2024-02-16T00:30:13;13.9;70.1
79356;SHT31;68825;51.978;5.654;2024-02-16T00:32:45;13.9;70.0
79356;SHT31;68825;51.978;5.654;2024-02-16T00:35:14;13.9;69.8
79356;SHT31;68825;51.978;5.654;2024-02-16T00:37:44;13.9;69.9
79356;SHT31;68825;51.978;5.654;2024-02-16T00:40:13;13.9;69.9
79356;SHT31;68825;51.978;5.654;2024-02-16T00:42:43;13.8;70.0
79356;SHT31;68825;51.978;5.654;2024-02-16T00:45:12;13.8;70.2
79356;SHT31;68825;51.978;5.654;2024-02-16T00:47:45;13.8;69.9
79356;SHT31;68825;51.978;5.654;2024-02-16T00:50:16;13.8;70.3
79356;SHT31;68825;51.978;5.654;2024-02-16T00:52:47;13.8;70.2
79356;SHT31;68825;51.978;5.654;2024-02-16T00:55:17;13.8;70.1
79356;SHT31;68825;51.978;5.654;2024-02-16T00:57:46;13.8;70.0
79356;SHT31;68825;51.978;5.654;2024-02-16T01:00:18;13.8;70.2
79356;SHT31;68825;51.978;5.654;2024-02-16T01:02:48;13.8;70.3
79356;SHT31;68825;51.978;5.654;2024-02-16T01:05:18;13.8;70.1
79356;SHT31;68825;51.978;5.654;2024-02-16T01:07:48;13.8;69.9
79356;SHT31;68825;51.978;5.654;2024-02-16T01:10:19;13.8;70.1
79356;SHT31;68825;51.978;5.654;2024-02-16T01:12:50;13.8;70.4
79356;SHT31;68825;51.978;5.654;2024-02-16T01:15:22;13.8;70.1
79356;SHT31;68825;51.978;5.654;2024-02-16T01:17:51;13.7;69.8
79356;SHT31;68825;51.978;5.654;2024-02-16T01:20:20;13.7;69.7
79356;SHT31;68825;51.978;5.654;2024-02-16T01:22:51;13.7;69.9
79356;SHT31;68825;51.978;5.654;2024-02-16T01:25:19;13.7;69.9
79356;SHT31;68825;51.978;5.654;2024-02-16T01:27:48;13.7;70.2
79356;SHT31;68825;51.978;5.654;2024-02-16T01:30:17;13.7;70.1
79356;SHT31;68825;51.978;5.654;2024-02-16T01:32:46;13.6;69.8
79356;SHT31;68825;51.978;5.654;2024-02-16T01:35:16;13.6;69.9
79356;SHT31;68825;51.978;5.654;2024-02-16T01:37:46;13.6;70.3
79356;SHT31;68825;51.978;5.654;2024-02-16T01:40:15;13.6;70.1
79356;SHT31;68825;51.978;5.654;2024-02-16T01:42:44;13.6;70.4
79356;SHT31;68825;51.978;5.654;2024-02-16T01:45:13;13.6;70.1
79356;SHT31;68825;51.978;5.654;2024-02-16T01:47:43;13.5;70.1
79356;SHT31;68825;51.978;5.654;2024-02-16T01:50:17;13.5;70.3
79356;SHT31;68825;51.978;5.654;2024-02-16T01:52:47;13.5;70.4
79356;SHT31;68825;51.978;5.654;2024-02-16T01:55:17;13.5;70.3
79356;SHT31;68825;51.978;5.654;2024-02-16T01:57:47;13.5;70.6
79356;SHT31;68825;51.978;5.654;2024-02-16T02:00:16;13.5;70.1
79356;SHT31;68825;51.978;5.654;2024-02-16T02:02:46;13.5;70.0
79356;SHT31;68825;51.978;5.654;2024-02-16T02:05:15;13.4;70.2
79356;SHT31;68825;51.978;5.654;2024-02-16T02:07:44;13.4;70.4
79356;SHT31;68825;51.978;5.654;2024-02-16T02:10:15;13.4;70.4
79356;SHT31;68825;51.978;5.654;2024-02-16T02:12:44;13.4;70.4
79356;SHT31;68825;51.978;5.654;2024-02-16T02:15:16;13.4;70.3
79356;SHT31;68825;51.978;5.654;2024-02-16T02:17:45;13.4;70.3
79356;SHT31;68825;51.978;5.654;2024-02-16T02:20:15;13.4;70.2
79356;SHT31;68825;51.978;5.654;2024-02-16T02:22:43;13.4;70.2
79356;SHT31;68825;51.978;5.654;2024-02-16T02:25:14;13.4;70.5
79356;SHT31;68825;51.978;5.654;2024-02-16T02:27:43;13.4;70.4
79356;SHT31;68825;51.978;5.654;2024-02-16T02:30:12;13.4;70.2
79356;SHT31;68825;51.978;5.654;2024-02-16T02:32:43;13.4;70.4
79356;SHT31;68825;51.978;5.654;2024-02-16T02:35:12;13.4;70.3
79356;SHT31;68825;51.978;5.654;2024-02-16T02:37:41;13.4;70.4
79356;SHT31;68825;51.978;5.654;2024-02-16T02:40:10;13.4;70.4
79356;SHT31;68825;51.978;5.654;2024-02-16T02:42:39;13.4;70.2
79356;SHT31;68825;51.978;5.654;2024-02-16T02:45:08;13.5;69.9
79356;SHT31;68825;51.978;5.654;2024-02-16T02:47:37;13.5;69.9
79356;SHT31;68825;51.978;5.654;2024-02-16T02:50:07;13.5;69.8
79356;SHT31;68825;51.978;5.654;2024-02-16T02:52:36;13.5;70.0
79356;SHT31;68825;51.978;5.654;2024-02-16T02:55:06;13.5;69.8
79356;SHT31;68825;51.978;5.654;2024-02-16T02:57:36;13.5;70.1
79356;SHT31;68825;51.978;5.654;2024-02-16T03:00:06;13.5;70.0
79356;SHT31;68825;51.978;5.654;2024-02-16T03:02:37;13.5;70.1
79356;SHT31;68825;51.978;5.654;2024-02-16T03:05:07;13.5;70.1
79356;SHT31;68825;51.978;5.654;2024-02-16T03:07:36;13.5;69.7
79356;SHT31;68825;51.978;5.654;2024-02-16T03:10:06;13.5;70.1
79356;SHT31;68825;51.978;5.654;2024-02-16T03:12:36;13.5;69.8
79356;SHT31;68825;51.978;5.654;2024-02-16T03:15:05;13.5;69.8
79356;SHT31;68825;51.978;5.654;2024-02-16T03:17:35;13.6;69.7
79356;SHT31;68825;51.978;5.654;2024-02-16T03:20:04;13.6;69.8
79356;SHT31;68825;51.978;5.654;2024-02-16T03:22:34;13.6;69.4
79356;SHT31;68825;51.978;5.654;2024-02-16T03:25:03;13.6;69.5
79356;SHT31;68825;51.978;5.654;2024-02-16T03:27:31;13.6;69.3
79356;SHT31;68825;51.978;5.654;2024-02-16T03:30:00;13.6;69.3
79356;SHT31;68825;51.978;5.654;2024-02-16T03:32:31;13.6;69.2
79356;SHT31;68825;51.978;5.654;2024-02-16T03:35:00;13.6;69.2
79356;SHT31;68825;51.978;5.654;2024-02-16T03:37:30;13.5;69.2
79356;SHT31;68825;51.978;5.654;2024-02-16T03:40:00;13.5;69.4
79356;SHT31;68825;51.978;5.654;2024-02-16T03:42:28;13.5;69.1
79356;SHT31;68825;51.978;5.654;2024-02-16T03:44:58;13.5;69.5
79356;SHT31;68825;51.978;5.654;2024-02-16T03:47:28;13.4;69.7
79356;SHT31;68825;51.978;5.654;2024-02-16T03:49:58;13.4;69.7
79356;SHT31;68825;51.978;5.654;2024-02-16T03:52:27;13.4;69.9
79356;SHT31;68825;51.978;5.654;2024-02-16T03:54:55;13.4;69.7
79356;SHT31;68825;51.978;5.654;2024-02-16T03:57:24;13.3;69.6
79356;SHT31;68825;51.978;5.654;2024-02-16T03:59:53;13.3;69.7
79356;SHT31;68825;51.978;5.654;2024-02-16T04:02:21;13.3;69.9
79356;SHT31;68825;51.978;5.654;2024-02-16T04:04:50;13.3;69.9
79356;SHT31;68825;51.978;5.654;2024-02-16T04:07:20;13.3;70.0
79356;SHT31;68825;51.978;5.654;2024-02-16T04:09:49;13.3;70.1
79356;SHT31;68825;51.978;5.654;2024-02-16T04:12:17;13.2;70.0
79356;SHT31;68825;51.978;5.654;2024-02-16T04:14:46;13.2;70.1
79356;SHT31;68825;51.978;5.654;2024-02-16T04:17:14;13.2;70.1
79356;SHT31;68825;51.978;5.654;2024-02-16T04:19:43;13.2;70.2
79356;SHT31;68825;51.978;5.654;2024-02-16T04:22:12;13.2;70.2
79356;SHT31;68825;51.978;5.654;2024-02-16T04:24:41;13.2;70.4
79356;SHT31;68825;51.978;5.654;2024-02-16T04:27:11;13.2;70.4
79356;SHT31;68825;51.978;5.654;2024-02-16T04:29:40;13.2;70.1
79356;SHT31;68825;51.978;5.654;2024-02-16T04:32:11;13.2;70.2
79356;SHT31;68825;51.978;5.654;2024-02-16T04:34:40;13.2;70.2
79356;SHT31;68825;51.978;5.654;2024-02-16T04:37:09;13.2;70.2
79356;SHT31;68825;51.978;5.654;2024-02-16T04:39:38;13.2;70.1
79356;SHT31;68825;51.978;5.654;2024-02-16T04:42:09;13.2;70.3
79356;SHT31;68825;51.978;5.654;2024-02-16T04:44:39;13.3;70.1
79356;SHT31;68825;51.978;5.654;2024-02-16T04:47:08;13.3;70.1
79356;SHT31;68825;51.978;5.654;2024-02-16T04:49:38;13.3;70.0
79356;SHT31;68825;51.978;5.654;2024-02-16T04:52:07;13.3;70.0
79356;SHT31;68825;51.978;5.654;2024-02-16T04:54:36;13.3;70.1
79356;SHT31;68825;51.978;5.654;2024-02-16T04:57:07;13.4;69.7
79356;SHT31;68825;51.978;5.654;2024-02-16T04:59:36;13.4;69.9
79356;SHT31;68825;51.978;5.654;2024-02-16T05:02:07;13.4;69.9
79356;SHT31;68825;51.978;5.654;2024-02-16T05:04:36;13.4;69.5
79356;SHT31;68825;51.978;5.654;2024-02-16T05:07:05;13.5;69.7
79356;SHT31;68825;51.978;5.654;2024-02-16T05:09:34;13.5;69.6
79356;SHT31;68825;51.978;5.654;2024-02-16T05:12:03;13.5;69.6
79356;SHT31;68825;51.978;5.654;2024-02-16T05:14:33;13.5;69.5
79356;SHT31;68825;51.978;5.654;2024-02-16T05:17:02;13.5;69.4
79356;SHT31;68825;51.978;5.654;2024-02-16T05:19:34;13.5;69.4
79356;SHT31;68825;51.978;5.654;2024-02-16T05:22:03;13.5;69.5
79356;SHT31;68825;51.978;5.654;2024-02-16T05:24:32;13.5;69.5
79356;SHT31;68825;51.978;5.654;2024-02-16T05:27:02;13.5;69.4
79356;SHT31;68825;51.978;5.654;2024-02-16T05:29:32;13.6;69.8
79356;SHT31;68825;51.978;5.654;2024-02-16T05:32:01;13.6;69.4
79356;SHT31;68825;51.978;5.654;2024-02-16T05:34:30;13.6;69.8
79356;SHT31;68825;51.978;5.654;2024-02-16T05:37:04;13.6;69.7
79356;SHT31;68825;51.978;5.654;2024-02-16T05:39:36;13.6;69.4
79356;SHT31;68825;51.978;5.654;2024-02-16T05:42:09;13.7;69.5
79356;SHT31;68825;51.978;5.654;2024-02-16T05:44:38;13.7;69.3
79356;SHT31;68825;51.978;5.654;2024-02-16T05:47:07;13.7;69.2
79356;SHT31;68825;51.978;5.654;2024-02-16T05:49:35;13.7;69.5
79356;SHT31;68825;51.978;5.654;2024-02-16T05:52:05;13.7;69.2
79356;SHT31;68825;51.978;5.654;2024-02-16T05:54:47;13.7;69.5
79356;SHT31;68825;51.978;5.654;2024-02-16T05:57:16;13.7;69.4
79356;SHT31;68825;51.978;5.654;2024-02-16T05:59:47;13.7;69.5
79356;SHT31;68825;51.978;5.654;2024-02-16T06:02:16;13.7;69.5
79356;SHT31;68825;51.978;5.654;2024-02-16T06:04:44;13.7;69.4
79356;SHT31;68825;51.978;5.654;2024-02-16T06:07:13;13.7;69.3
79356;SHT31;68825;51.978;5.654;2024-02-16T06:09:42;13.7;69.5
79356;SHT31;68825;51.978;5.654;2024-02-16T06:12:10;13.7;69.5
79356;SHT31;68825;51.978;5.654;2024-02-16T06:14:39;13.7;69.6
79356;SHT31;68825;51.978;5.654;2024-02-16T06:17:08;13.7;69.6
79356;SHT31;68825;51.978;5.654;2024-02-16T06:19:36;13.7;69.7
79356;SHT31;68825;51.978;5.654;2024-02-16T06:22:07;13.7;69.9
79356;SHT31;68825;51.978;5.654;2024-02-16T06:24:36;13.7;69.8
79356;SHT31;68825;51.978;5.654;2024-02-16T06:27:05;13.7;70.0
79356;SHT31;68825;51.978;5.654;2024-02-16T06:29:34;13.7;70.1
79356;SHT31;68825;51.978;5.654;2024-02-16T06:32:03;13.8;70.1
79356;SHT31;68825;51.978;5.654;2024-02-16T06:34:35;13.8;69.9
79356;SHT31;68825;51.978;5.654;2024-02-16T06:37:03;13.8;70.1
79356;SHT31;68825;51.978;5.654;2024-02-16T06:39:34;13.8;69.9
79356;SHT31;68825;51.978;5.654;2024-02-16T06:42:03;13.8;69.7
79356;SHT31;68825;51.978;5.654;2024-02-16T06:44:31;13.9;69.8
79356;SHT31;68825;51.978;5.654;2024-02-16T06:47:00;13.9;69.8
79356;SHT31;68825;51.978;5.654;2024-02-16T06:49:28;13.9;69.6
79356;SHT31;68825;51.978;5.654;2024-02-16T06:51:57;13.9;69.6
79356;SHT31;68825;51.978;5.654;2024-02-16T06:54:26;13.9;69.8
79356;SHT31;68825;51.978;5.654;2024-02-16T06:56:57;13.9;69.7
79356;SHT31;68825;51.978;5.654;2024-02-16T06:59:27;13.9;69.7
79356;SHT31;68825;51.978;5.654;2024-02-16T07:01:55;13.9;69.8
79356;SHT31;68825;51.978;5.654;2024-02-16T07:04:24;13.9;69.9
79356;SHT31;68825;51.978;5.654;2024-02-16T07:06:53;13.9;70.1
79356;SHT31;68825;51.978;5.654;2024-02-16T07:09:23;13.9;70.1
79356;SHT31;68825;51.978;5.654;2024-02-16T07:11:52;13.9;70.1
79356;SHT31;68825;51.978;5.654;2024-02-16T07:14:22;13.8;70.3
79356;SHT31;68825;51.978;5.654;2024-02-16T07:16:51;13.8;70.5
79356;SHT31;68825;51.978;5.654;2024-02-16T07:19:19;13.8;70.7
79356;SHT31;68825;51.978;5.654;2024-02-16T07:21:48;13.9;70.8
79356;SHT31;68825;51.978;5.654;2024-02-16T07:24:17;13.9;70.7
79356;SHT31;68825;51.978;5.654;2024-02-16T07:26:46;13.9;70.7
79356;SHT31;68825;51.978;5.654;2024-02-16T07:29:15;13.9;70.9
79356;SHT31;68825;51.978;5.654;2024-02-16T07:31:44;13.9;70.8
79356;SHT31;68825;51.978;5.654;2024-02-16T07:34:12;13.9;70.8
79356;SHT31;68825;51.978;5.654;2024-02-16T07:36:41;13.9;71.0
79356;SHT31;68825;51.978;5.654;2024-02-16T07:39:09;13.9;70.9
79356;SHT31;68825;51.978;5.654;2024-02-16T07:41:39;14.0;70.8
79356;SHT31;68825;51.978;5.654;2024-02-16T07:44:07;14.0;71.0
79356;SHT31;68825;51.978;5.654;2024-02-16T07:46:41;14.0;70.9
79356;SHT31;68825;51.978;5.654;2024-02-16T07:49:10;14.0;71.0
79356;SHT31;68825;51.978;5.654;2024-02-16T07:51:39;14.0;71.2
79356;SHT31;68825;51.978;5.654;2024-02-16T07:54:08;14.1;71.1
79356;SHT31;68825;51.978;5.654;2024-02-16T07:56:37;14.1;71.1
79356;SHT31;68825;51.978;5.654;2024-02-16T07:59:05;14.1;71.0
79356;SHT31;68825;51.978;5.654;2024-02-16T08:01:34;14.1;71.1
79356;SHT31;68825;51.978;5.654;2024-02-16T08:04:03;14.1;71.1
79356;SHT31;68825;51.978;5.654;2024-02-16T08:06:33;14.2;71.0
79356;SHT31;68825;51.978;5.654;2024-02-16T08:09:03;14.2;71.1
79356;SHT31;68825;51.978;5.654;2024-02-16T08:11:32;14.2;71.0
79356;SHT31;68825;51.978;5.654;2024-02-16T08:14:01;14.2;71.1
79356;SHT31;68825;51.978;5.654;2024-02-16T08:16:29;14.3;71.2
79356;SHT31;68825;51.978;5.654;2024-02-16T08:19:00;14.3;71.2
79356;SHT31;68825;51.978;5.654;2024-02-16T08:21:28;14.3;71.2
79356;SHT31;68825;51.978;5.654;2024-02-16T08:23:57;14.3;71.3
79356;SHT31;68825;51.978;5.654;2024-02-16T08:26:27;14.3;71.4
79356;SHT31;68825;51.978;5.654;2024-02-16T08:28:56;14.4;71.3
79356;SHT31;68825;51.978;5.654;2024-02-16T08:31:26;14.4;71.2
79356;SHT31;68825;51.978;5.654;2024-02-16T08:33:54;14.4;71.3
79356;SHT31;68825;51.978;5.654;2024-02-16T08:36:23;14.4;71.3
79356;SHT31;68825;51.978;5.654;2024-02-16T08:38:55;14.4;71.1
79356;SHT31;68825;51.978;5.654;2024-02-16T08:41:24;14.5;71.2
79356;SHT31;68825;51.978;5.654;2024-02-16T08:43:52;14.5;71.4
79356;SHT31;68825;51.978;5.654;2024-02-16T08:46:23;14.6;71.1
79356;SHT31;68825;51.978;5.654;2024-02-16T08:48:51;14.6;71.1
79356;SHT31;68825;51.978;5.654;2024-02-16T08:51:20;14.6;70.9
79356;SHT31;68825;51.978;5.654;2024-02-16T08:53:48;14.7;70.9
79356;SHT31;68825;51.978;5.654;2024-02-16T08:56:17;14.7;71.0
79356;SHT31;68825;51.978;5.654;2024-02-16T08:58:45;14.7;70.9
79356;SHT31;68825;51.978;5.654;2024-02-16T09:01:14;14.7;71.0
79356;SHT31;68825;51.978;5.654;2024-02-16T09:03:43;14.8;70.8
79356;SHT31;68825;51.978;5.654;2024-02-16T09:06:13;14.8;71.0
79356;SHT31;68825;51.978;5.654;2024-02-16T09:08:42;14.8;71.0
79356;SHT31;68825;51.978;5.654;2024-02-16T09:11:12;14.8;71.0
79356;SHT31;68825;51.978;5.654;2024-02-16T09:13:40;14.9;71.0
79356;SHT31;68825;51.978;5.654;2024-02-16T09:16:09;14.9;70.8
79356;SHT31;68825;51.978;5.654;2024-02-16T09:18:37;14.9;71.0
79356;SHT31;68825;51.978;5.654;2024-02-16T09:21:07;15.0;70.8
79356;SHT31;68825;51.978;5.654;2024-02-16T09:23:37;15.0;71.3
79356;SHT31;68825;51.978;5.654;2024-02-16T09:26:06;15.1;70.9
79356;SHT31;68825;51.978;5.654;2024-02-16T09:28:39;15.1;70.8
79356;SHT31;68825;51.978;5.654;2024-02-16T09:31:08;15.1;71.0
79356;SHT31;68825;51.978;5.654;2024-02-16T09:33:39;15.2;70.9
79356;SHT31;68825;51.978;5.654;2024-02-16T09:36:07;15.2;71.2
79356;SHT31;68825;51.978;5.654;2024-02-16T09:38:36;15.2;72.3
79356;SHT31;68825;51.978;5.654;2024-02-16T09:41:05;15.3;72.7
79356;SHT31;68825;51.978;5.654;2024-02-16T09:43:33;15.3;72.9
79356;SHT31;68825;51.978;5.654;2024-02-16T09:46:02;15.3;72.9
79356;SHT31;68825;51.978;5.654;2024-02-16T09:48:31;15.3;72.5
79356;SHT31;68825;51.978;5.654;2024-02-16T09:50:59;15.3;72.8
79356;SHT31;68825;51.978;5.654;2024-02-16T09:53:29;15.3;72.4
79356;SHT31;68825;51.978;5.654;2024-02-16T09:55:57;15.3;73.0
79356;SHT31;68825;51.978;5.654;2024-02-16T09:58:28;15.3;72.8
79356;SHT31;68825;51.978;5.654;2024-02-16T10:00:56;15.4;72.6
79356;SHT31;68825;51.978;5.654;2024-02-16T10:03:27;15.4;72.1
79356;SHT31;68825;51.978;5.654;2024-02-16T10:06:06;15.4;72.4
79356;SHT31;68825;51.978;5.654;2024-02-16T10:08:48;15.4;72.2
79356;SHT31;68825;51.978;5.654;2024-02-16T10:11:19;15.4;72.4
79356;SHT31;68825;51.978;5.654;2024-02-16T10:13:58;15.4;72.0
79356;SHT31;68825;51.978;5.654;2024-02-16T10:16:28;15.4;72.0
79356;SHT31;68825;51.978;5.654;2024-02-16T10:19:06;15.5;71.7
79356;SHT31;68825;51.978;5.654;2024-02-16T10:21:37;15.5;71.5
79356;SHT31;68825;51.978;5.654;2024-02-16T10:24:07;15.5;71.1
79356;SHT31;68825;51.978;5.654;2024-02-16T10:26:37;15.5;71.4
79356;SHT31;68825;51.978;5.654;2024-02-16T10:29:10;15.5;71.9
79356;SHT31;68825;51.978;5.654;2024-02-16T10:31:40;15.4;71.8
79356;SHT31;68825;51.978;5.654;2024-02-16T10:34:08;15.4;72.1
79356;SHT31;68825;51.978;5.654;2024-02-16T10:36:38;15.4;72.2
79356;SHT31;68825;51.978;5.654;2024-02-16T10:39:08;15.4;72.1
79356;SHT31;68825;51.978;5.654;2024-02-16T10:41:39;15.4;71.8
79356;SHT31;68825;51.978;5.654;2024-02-16T10:44:08;15.4;71.7
79356;SHT31;68825;51.978;5.654;2024-02-16T10:46:38;15.4;71.9
79356;SHT31;68825;51.978;5.654;2024-02-16T10:49:06;15.4;72.2
79356;SHT31;68825;51.978;5.654;2024-02-16T10:51:39;15.4;72.1
79356;SHT31;68825;51.978;5.654;2024-02-16T10:54:10;15.4;72.1
79356;SHT31;68825;51.978;5.654;2024-02-16T10:56:40;15.4;72.7
79356;SHT31;68825;51.978;5.654;2024-02-16T10:59:10;15.4;73.4
79356;SHT31;68825;51.978;5.654;2024-02-16T11:01:40;15.4;73.5
79356;SHT31;68825;51.978;5.654;2024-02-16T11:04:13;15.4;73.9
79356;SHT31;68825;51.978;5.654;2024-02-16T11:06:51;15.4;74.0
79356;SHT31;68825;51.978;5.654;2024-02-16T11:09:30;15.3;74.1
79356;SHT31;68825;51.978;5.654;2024-02-16T11:12:04;15.3;74.2
79356;SHT31;68825;51.978;5.654;2024-02-16T11:14:39;15.3;74.3
79356;SHT31;68825;51.978;5.654;2024-02-16T11:17:10;15.3;74.7
79356;SHT31;68825;51.978;5.654;2024-02-16T11:19:40;15.2;74.7
79356;SHT31;68825;51.978;5.654;2024-02-16T11:22:10;15.2;75.1
79356;SHT31;68825;51.978;5.654;2024-02-16T11:24:44;15.2;75.4
79356;SHT31;68825;51.978;5.654;2024-02-16T11:27:14;15.1;75.8
79356;SHT31;68825;51.978;5.654;2024-02-16T11:29:46;15.1;75.8
79356;SHT31;68825;51.978;5.654;2024-02-16T11:32:15;15.1;75.8
79356;SHT31;68825;51.978;5.654;2024-02-16T11:34:46;15.1;76.2
79356;SHT31;68825;51.978;5.654;2024-02-16T11:37:16;15.0;76.5
79356;SHT31;68825;51.978;5.654;2024-02-16T11:39:45;15.0;76.8
79356;SHT31;68825;51.978;5.654;2024-02-16T11:42:19;15.0;77.2
79356;SHT31;68825;51.978;5.654;2024-02-16T11:44:53;15.0;77.0
79356;SHT31;68825;51.978;5.654;2024-02-16T11:47:25;15.0;77.1
79356;SHT31;68825;51.978;5.654;2024-02-16T11:50:06;15.0;77.3
79356;SHT31;68825;51.978;5.654;2024-02-16T11:52:39;15.0;77.1
79356;SHT31;68825;51.978;5.654;2024-02-16T11:55:10;15.0;76.9
79356;SHT31;68825;51.978;5.654;2024-02-16T11:57:41;15.0;77.1
79356;SHT31;68825;51.978;5.654;2024-02-16T12:00:12;15.0;77.2
79356;SHT31;68825;51.978;5.654;2024-02-16T12:02:41;14.9;77.3
79356;SHT31;68825;51.978;5.654;2024-02-16T12:05:13;14.9;77.3
79356;SHT31;68825;51.978;5.654;2024-02-16T12:07:42;14.9;77.3
79356;SHT31;68825;51.978;5.654;2024-02-16T12:10:11;14.9;77.5
79356;SHT31;68825;51.978;5.654;2024-02-16T12:12:39;14.9;77.6
79356;SHT31;68825;51.978;5.654;2024-02-16T12:15:10;14.9;77.5
79356;SHT31;68825;51.978;5.654;2024-02-16T12:17:39;14.9;77.7
79356;SHT31;68825;51.978;5.654;2024-02-16T12:20:13;14.9;78.0
79356;SHT31;68825;51.978;5.654;2024-02-16T12:22:42;14.9;78.1
79356;SHT31;68825;51.978;5.654;2024-02-16T12:25:11;14.9;77.7
79356;SHT31;68825;51.978;5.654;2024-02-16T12:27:40;14.9;77.2
79356;SHT31;68825;51.978;5.654;2024-02-16T12:30:10;14.9;77.1
79356;SHT31;68825;51.978;5.654;2024-02-16T12:32:39;14.9;76.9
79356;SHT31;68825;51.978;5.654;2024-02-16T12:35:08;14.9;76.9
79356;SHT31;68825;51.978;5.654;2024-02-16T12:37:37;14.9;77.3
79356;SHT31;68825;51.978;5.654;2024-02-16T12:40:06;14.9;77.3
79356;SHT31;68825;51.978;5.654;2024-02-16T12:42:36;14.9;77.2
79356;SHT31;68825;51.978;5.654;2024-02-16T12:45:05;14.9;77.1
79356;SHT31;68825;51.978;5.654;2024-02-16T12:47:33;14.8;77.5
79356;SHT31;68825;51.978;5.654;2024-02-16T12:50:04;14.8;77.7
79356;SHT31;68825;51.978;5.654;2024-02-16T12:52:32;14.8;77.7
79356;SHT31;68825;51.978;5.654;2024-02-16T12:55:05;14.8;77.9
79356;SHT31;68825;51.978;5.654;2024-02-16T12:57:36;14.8;77.8
79356;SHT31;68825;51.978;5.654;2024-02-16T13:00:05;14.7;77.8
79356;SHT31;68825;51.978;5.654;2024-02-16T13:02:36;14.7;77.7
79356;SHT31;68825;51.978;5.654;2024-02-16T13:05:05;14.7;77.9
79356;SHT31;68825;51.978;5.654;2024-02-16T13:07:34;14.7;78.0
79356;SHT31;68825;51.978;5.654;2024-02-16T13:10:05;14.6;78.2
79356;SHT31;68825;51.978;5.654;2024-02-16T13:12:33;14.6;78.4
79356;SHT31;68825;51.978;5.654;2024-02-16T13:15:04;14.6;78.5
79356;SHT31;68825;51.978;5.654;2024-02-16T13:17:34;14.6;78.9
79356;SHT31;68825;51.978;5.654;2024-02-16T13:20:04;14.6;79.0
79356;SHT31;68825;51.978;5.654;2024-02-16T13:22:36;14.6;79.4
79356;SHT31;68825;51.978;5.654;2024-02-16T13:25:05;14.6;79.0
79356;SHT31;68825;51.978;5.654;2024-02-16T13:27:36;14.7;78.7
79356;SHT31;68825;51.978;5.654;2024-02-16T13:30:06;14.7;78.9
79356;SHT31;68825;51.978;5.654;2024-02-16T13:32:35;14.7;78.2
79356;SHT31;68825;51.978;5.654;2024-02-16T13:35:06;14.7;78.6
79356;SHT31;68825;51.978;5.654;2024-02-16T13:37:35;14.7;78.6
79356;SHT31;68825;51.978;5.654;2024-02-16T13:40:05;14.8;78.2
79356;SHT31;68825;51.978;5.654;2024-02-16T13:42:39;14.8;78.2
79356;SHT31;68825;51.978;5.654;2024-02-16T13:45:10;14.8;78.4
79356;SHT31;68825;51.978;5.654;2024-02-16T13:47:39;14.9;78.0
79356;SHT31;68825;51.978;5.654;2024-02-16T13:50:09;14.9;77.8
79356;SHT31;68825;51.978;5.654;2024-02-16T13:52:39;14.9;77.6
79356;SHT31;68825;51.978;5.654;2024-02-16T13:55:12;15.0;77.2
79356;SHT31;68825;51.978;5.654;2024-02-16T13:57:43;15.0;77.2
79356;SHT31;68825;51.978;5.654;2024-02-16T14:00:12;15.0;76.8
79356;SHT31;68825;51.978;5.654;2024-02-16T14:02:43;15.1;76.3
79356;SHT31;68825;51.978;5.654;2024-02-16T14:05:12;15.1;75.9
79356;SHT31;68825;51.978;5.654;2024-02-16T14:07:40;15.1;75.3
79356;SHT31;68825;51.978;5.654;2024-02-16T14:10:09;15.1;75.9
79356;SHT31;68825;51.978;5.654;2024-02-16T14:12:38;15.1;75.2
79356;SHT31;68825;51.978;5.654;2024-02-16T14:15:07;15.1;75.2
79356;SHT31;68825;51.978;5.654;2024-02-16T14:17:42;15.1;75.2
79356;SHT31;68825;51.978;5.654;2024-02-16T14:20:11;15.1;75.8
79356;SHT31;68825;51.978;5.654;2024-02-16T14:22:40;15.1;74.6
79356;SHT31;68825;51.978;5.654;2024-02-16T14:25:10;15.1;75.1
79356;SHT31;68825;51.978;5.654;2024-02-16T14:27:39;15.1;75.4
79356;SHT31;68825;51.978;5.654;2024-02-16T14:30:10;15.1;75.2
79356;SHT31;68825;51.978;5.654;2024-02-16T14:32:39;15.1;74.8
79356;SHT31;68825;51.978;5.654;2024-02-16T14:35:08;15.1;74.9
79356;SHT31;68825;51.978;5.654;2024-02-16T14:37:40;15.2;74.5
79356;SHT31;68825;51.978;5.654;2024-02-16T14:40:09;15.2;74.3
79356;SHT31;68825;51.978;5.654;2024-02-16T14:42:39;15.2;74.6
79356;SHT31;68825;51.978;5.654;2024-02-16T14:45:08;15.2;74.5
79356;SHT31;68825;51.978;5.654;2024-02-16T14:47:42;15.2;74.2
79356;SHT31;68825;51.978;5.654;2024-02-16T14:50:13;15.2;74.5
79356;SHT31;68825;51.978;5.654;2024-02-16T14:52:43;15.2;74.2
79356;SHT31;68825;51.978;5.654;2024-02-16T14:55:12;15.2;74.4
79356;SHT31;68825;51.978;5.654;2024-02-16T14:57:41;15.2;74.2
79356;SHT31;68825;51.978;5.654;2024-02-16T15:00:11;15.2;73.8
79356;SHT31;68825;51.978;5.654;2024-02-16T15:02:41;15.2;73.9
79356;SHT31;68825;51.978;5.654;2024-02-16T15:05:09;15.1;74.1
79356;SHT31;68825;51.978;5.654;2024-02-16T15:07:39;15.1;73.9
79356;SHT31;68825;51.978;5.654;2024-02-16T15:10:08;15.1;73.8
79356;SHT31;68825;51.978;5.654;2024-02-16T15:12:37;15.1;73.8
79356;SHT31;68825;51.978;5.654;2024-02-16T15:15:09;15.0;73.6
79356;SHT31;68825;51.978;5.654;2024-02-16T15:17:40;15.0;74.0
79356;SHT31;68825;51.978;5.654;2024-02-16T15:20:08;14.9;74.1
79356;SHT31;68825;51.978;5.654;2024-02-16T15:22:37;14.9;74.1
79356;SHT31;68825;51.978;5.654;2024-02-16T15:25:10;14.9;73.4
79356;SHT31;68825;51.978;5.654;2024-02-16T15:27:38;14.9;73.2
79356;SHT31;68825;51.978;5.654;2024-02-16T15:30:07;14.9;72.8
79356;SHT31;68825;51.978;5.654;2024-02-16T15:32:36;14.9;72.8
79356;SHT31;68825;51.978;5.654;2024-02-16T15:35:06;14.8;73.2
79356;SHT31;68825;51.978;5.654;2024-02-16T15:37:35;14.7;73.6
79356;SHT31;68825;51.978;5.654;2024-02-16T15:40:05;14.7;74.0
79356;SHT31;68825;51.978;5.654;2024-02-16T15:42:34;14.7;74.3
79356;SHT31;68825;51.978;5.654;2024-02-16T15:45:03;14.7;73.7
79356;SHT31;68825;51.978;5.654;2024-02-16T15:47:32;14.7;73.7
79356;SHT31;68825;51.978;5.654;2024-02-16T15:50:00;14.6;74.1
79356;SHT31;68825;51.978;5.654;2024-02-16T15:52:29;14.6;74.1
79356;SHT31;68825;51.978;5.654;2024-02-16T15:54:58;14.6;74.1
79356;SHT31;68825;51.978;5.654;2024-02-16T15:57:26;14.6;74.3
79356;SHT31;68825;51.978;5.654;2024-02-16T15:59:55;14.6;74.4
79356;SHT31;68825;51.978;5.654;2024-02-16T16:02:24;14.6;74.4
79356;SHT31;68825;51.978;5.654;2024-02-16T16:04:53;14.6;74.6
79356;SHT31;68825;51.978;5.654;2024-02-16T16:07:23;14.7;74.3
79356;SHT31;68825;51.978;5.654;2024-02-16T16:09:53;14.7;74.3
79356;SHT31;68825;51.978;5.654;2024-02-16T16:12:22;14.7;74.5
79356;SHT31;68825;51.978;5.654;2024-02-16T16:14:51;14.7;74.7
79356;SHT31;68825;51.978;5.654;2024-02-16T16:17:21;14.7;75.2